LGA weather

La Guardia Airport
New York, New York, United States

Public forecast

Using degrees Fahrenheit for public forecast. Weather courtesy of forecast.io.

Current aviation weather report (METAR) for La Guardia Airport

Retrieved 2020/08/05 12:51 UTC (19 minutes ago):

KLGA 051251Z 35003KT 10SM FEW040 FEW250 27/20 A2998 RMK AO2 RAB02E11 SLP153 P0000 T02670200

Aviation forecast (TAF) for La Guardia Airport

Retrieved 2020/08/05 12:22 UTC (48 minutes ago):

TAF KLGA 051120Z 0512/0618 26005KT P6SM SCT040 FM052000 23009KT P6SM FEW060 FM060200 28005KT P6SM FEW060 FM060500 32003KT P6SM FEW060 FM060800 36004KT P6SM FEW060 FEW100 FM061100 03006KT P6SM FEW060 SCT100 FM061600 06005KT P6SM FEW060 SCT100